sensor_id;sensor_type;location;lat;lon;timestamp;pressure;altitude;pressure_sealevel;temperature;humidity
32298;BME280;18782;48.984;8.548;2023-04-08T00:02:17;100283.31;;;9.58;94.12
32298;BME280;18782;48.984;8.548;2023-04-08T00:04:44;100289.47;;;9.63;93.77
32298;BME280;18782;48.984;8.548;2023-04-08T00:07:12;100288.69;;;9.65;93.78
32298;BME280;18782;48.984;8.548;2023-04-08T00:09:41;100293.13;;;9.70;93.37
32298;BME280;18782;48.984;8.548;2023-04-08T00:12:09;100294.22;;;9.76;93.28
32298;BME280;18782;48.984;8.548;2023-04-08T00:14:36;100295.13;;;9.78;92.93
32298;BME280;18782;48.984;8.548;2023-04-08T00:17:04;100300.44;;;9.83;92.45
32298;BME280;18782;48.984;8.548;2023-04-08T00:19:32;100301.19;;;9.80;92.36
32298;BME280;18782;48.984;8.548;2023-04-08T00:22:01;100300.25;;;9.77;92.20
32298;BME280;18782;48.984;8.548;2023-04-08T00:24:29;100298.47;;;9.76;92.65
32298;BME280;18782;48.984;8.548;2023-04-08T00:26:58;100298.25;;;9.70;93.19
32298;BME280;18782;48.984;8.548;2023-04-08T00:29:26;100300.94;;;9.73;92.65
32298;BME280;18782;48.984;8.548;2023-04-08T00:31:54;100305.16;;;9.71;92.97
32298;BME280;18782;48.984;8.548;2023-04-08T00:34:22;100301.66;;;9.68;92.37
32298;BME280;18782;48.984;8.548;2023-04-08T00:36:50;100303.31;;;9.66;92.66
32298;BME280;18782;48.984;8.548;2023-04-08T00:39:17;100306.69;;;9.65;92.56
32298;BME280;18782;48.984;8.548;2023-04-08T00:41:45;100299.59;;;9.58;93.52
32298;BME280;18782;48.984;8.548;2023-04-08T00:44:14;100308.16;;;9.57;93.86
32298;BME280;18782;48.984;8.548;2023-04-08T00:46:42;100301.06;;;9.50;94.03
32298;BME280;18782;48.984;8.548;2023-04-08T00:49:10;100307.81;;;9.48;94.70
32298;BME280;18782;48.984;8.548;2023-04-08T00:51:37;100307.16;;;9.54;95.13
32298;BME280;18782;48.984;8.548;2023-04-08T00:54:05;100314.78;;;9.51;94.61
32298;BME280;18782;48.984;8.548;2023-04-08T00:56:33;100307.00;;;9.49;94.80
32298;BME280;18782;48.984;8.548;2023-04-08T00:59:02;100309.47;;;9.46;94.57
32298;BME280;18782;48.984;8.548;2023-04-08T01:01:36;100314.41;;;9.40;94.83
32298;BME280;18782;48.984;8.548;2023-04-08T01:04:12;100318.72;;;9.41;95.15
32298;BME280;18782;48.984;8.548;2023-04-08T01:06:46;100312.63;;;9.39;95.05
32298;BME280;18782;48.984;8.548;2023-04-08T01:09:17;100310.94;;;9.39;95.29
32298;BME280;18782;48.984;8.548;2023-04-08T01:11:48;100316.91;;;9.38;95.37
32298;BME280;18782;48.984;8.548;2023-04-08T01:14:22;100310.13;;;9.40;94.98
32298;BME280;18782;48.984;8.548;2023-04-08T01:16:56;100318.72;;;9.41;94.95
32298;BME280;18782;48.984;8.548;2023-04-08T01:19:28;100309.34;;;9.43;94.93
32298;BME280;18782;48.984;8.548;2023-04-08T01:26:04;100307.94;;;9.51;93.72
32298;BME280;18782;48.984;8.548;2023-04-08T01:28:32;100321.44;;;9.46;93.61
32298;BME280;18782;48.984;8.548;2023-04-08T01:31:02;100310.03;;;9.37;94.26
32298;BME280;18782;48.984;8.548;2023-04-08T01:33:30;100311.75;;;9.38;94.20
32298;BME280;18782;48.984;8.548;2023-04-08T01:35:59;100308.16;;;9.33;94.38
32298;BME280;18782;48.984;8.548;2023-04-08T01:38:30;100310.69;;;9.32;94.21
32298;BME280;18782;48.984;8.548;2023-04-08T01:41:37;100311.56;;;9.32;94.52
32298;BME280;18782;48.984;8.548;2023-04-08T01:48:14;100302.06;;;9.30;94.67
32298;BME280;18782;48.984;8.548;2023-04-08T01:55:33;100307.28;;;9.33;94.32
32298;BME280;18782;48.984;8.548;2023-04-08T01:58:04;100302.16;;;9.33;94.32
32298;BME280;18782;48.984;8.548;2023-04-08T02:00:34;100302.06;;;9.30;94.33
32298;BME280;18782;48.984;8.548;2023-04-08T02:03:04;100303.81;;;9.31;94.37
32298;BME280;18782;48.984;8.548;2023-04-08T02:05:33;100306.31;;;9.29;93.96
32298;BME280;18782;48.984;8.548;2023-04-08T02:08:01;100308.00;;;9.29;94.33
32298;BME280;18782;48.984;8.548;2023-04-08T02:10:29;100309.66;;;9.27;93.49
32298;BME280;18782;48.984;8.548;2023-04-08T02:12:56;100310.56;;;9.29;93.47
32298;BME280;18782;48.984;8.548;2023-04-08T02:15:26;100312.34;;;9.30;93.60
32298;BME280;18782;48.984;8.548;2023-04-08T02:17:59;100305.53;;;9.32;93.20
32298;BME280;18782;48.984;8.548;2023-04-08T02:20:36;100306.56;;;9.37;92.29
32298;BME280;18782;48.984;8.548;2023-04-08T02:23:08;100304.06;;;9.38;91.96
32298;BME280;18782;48.984;8.548;2023-04-08T02:25:38;100302.47;;;9.42;91.71
32298;BME280;18782;48.984;8.548;2023-04-08T02:28:09;100300.06;;;9.47;92.00
32298;BME280;18782;48.984;8.548;2023-04-08T02:30:41;100299.28;;;9.49;91.69
32298;BME280;18782;48.984;8.548;2023-04-08T02:33:10;100304.53;;;9.52;91.84
32298;BME280;18782;48.984;8.548;2023-04-08T02:39:44;100299.41;;;9.52;91.53
32298;BME280;18782;48.984;8.548;2023-04-08T02:42:13;100300.22;;;9.51;90.18
32298;BME280;18782;48.984;8.548;2023-04-08T02:44:40;100304.44;;;9.49;90.35
32298;BME280;18782;48.984;8.548;2023-04-08T02:47:10;100297.66;;;9.51;88.92
32298;BME280;18782;48.984;8.548;2023-04-08T02:49:37;100294.06;;;9.46;89.48
32298;BME280;18782;48.984;8.548;2023-04-08T02:52:05;100296.63;;;9.46;89.18
32298;BME280;18782;48.984;8.548;2023-04-08T02:54:32;100297.47;;;9.45;89.39
32298;BME280;18782;48.984;8.548;2023-04-08T02:57:00;100300.03;;;9.45;89.19
32298;BME280;18782;48.984;8.548;2023-04-08T02:59:28;100299.94;;;9.44;88.90
32298;BME280;18782;48.984;8.548;2023-04-08T03:01:56;100299.19;;;9.46;88.86
32298;BME280;18782;48.984;8.548;2023-04-08T03:04:25;100302.59;;;9.45;88.78
32298;BME280;18782;48.984;8.548;2023-04-08T03:06:52;100306.84;;;9.45;88.96
32298;BME280;18782;48.984;8.548;2023-04-08T03:09:20;100297.47;;;9.45;88.78
32298;BME280;18782;48.984;8.548;2023-04-08T03:11:48;100293.94;;;9.43;88.94
32298;BME280;18782;48.984;8.548;2023-04-08T03:14:19;100303.34;;;9.43;88.46
32298;BME280;18782;48.984;8.548;2023-04-08T03:16:46;100302.47;;;9.42;89.16
32298;BME280;18782;48.984;8.548;2023-04-08T03:19:14;100298.22;;;9.43;89.38
32298;BME280;18782;48.984;8.548;2023-04-08T03:21:43;100300.72;;;9.41;89.18
32298;BME280;18782;48.984;8.548;2023-04-08T03:24:11;100310.19;;;9.42;89.43
32298;BME280;18782;48.984;8.548;2023-04-08T03:26:38;100311.88;;;9.41;89.15
32298;BME280;18782;48.984;8.548;2023-04-08T03:29:06;100305.88;;;9.41;87.76
32298;BME280;18782;48.984;8.548;2023-04-08T03:31:34;100316.16;;;9.41;88.29
32298;BME280;18782;48.984;8.548;2023-04-08T03:34:02;100316.91;;;9.38;88.96
32298;BME280;18782;48.984;8.548;2023-04-08T03:36:29;100313.38;;;9.35;88.22
32298;BME280;18782;48.984;8.548;2023-04-08T03:38:58;100318.34;;;9.30;88.20
32298;BME280;18782;48.984;8.548;2023-04-08T03:41:26;100315.69;;;9.29;88.30
32298;BME280;18782;48.984;8.548;2023-04-08T03:43:54;100317.34;;;9.27;88.09
32298;BME280;18782;48.984;8.548;2023-04-08T03:46:21;100317.22;;;9.24;88.36
32298;BME280;18782;48.984;8.548;2023-04-08T03:48:49;100313.88;;;9.25;88.93
32298;BME280;18782;48.984;8.548;2023-04-08T03:51:17;100318.13;;;9.24;88.49
32298;BME280;18782;48.984;8.548;2023-04-08T03:53:45;100319.00;;;9.25;88.48
32298;BME280;18782;48.984;8.548;2023-04-08T03:56:14;100319.09;;;9.28;88.04
32298;BME280;18782;48.984;8.548;2023-04-08T03:58:42;100315.56;;;9.24;88.24
32298;BME280;18782;48.984;8.548;2023-04-08T04:01:09;100317.97;;;9.20;88.44
32298;BME280;18782;48.984;8.548;2023-04-08T04:03:37;100314.41;;;9.16;88.57
32298;BME280;18782;48.984;8.548;2023-04-08T04:06:05;100322.06;;;9.14;88.52
32298;BME280;18782;48.984;8.548;2023-04-08T04:08:33;100315.28;;;9.17;89.00
32298;BME280;18782;48.984;8.548;2023-04-08T04:11:00;100321.25;;;9.15;88.72
32298;BME280;18782;48.984;8.548;2023-04-08T04:13:29;100323.81;;;9.15;89.25
32298;BME280;18782;48.984;8.548;2023-04-08T04:15:57;100322.97;;;9.17;88.86
32298;BME280;18782;48.984;8.548;2023-04-08T04:18:25;100323.09;;;9.20;88.87
32298;BME280;18782;48.984;8.548;2023-04-08T04:20:52;100329.19;;;9.23;88.47
32298;BME280;18782;48.984;8.548;2023-04-08T04:23:20;100320.53;;;9.20;88.57
32298;BME280;18782;48.984;8.548;2023-04-08T04:25:49;100322.16;;;9.18;89.11
32298;BME280;18782;48.984;8.548;2023-04-08T04:28:17;100322.97;;;9.17;88.86
32298;BME280;18782;48.984;8.548;2023-04-08T04:30:46;100320.31;;;9.13;88.74
32298;BME280;18782;48.984;8.548;2023-04-08T04:33:13;100323.59;;;9.09;88.93
32298;BME280;18782;48.984;8.548;2023-04-08T04:35:41;100322.63;;;9.07;89.37
32298;BME280;18782;48.984;8.548;2023-04-08T04:38:09;100323.41;;;9.05;89.11
32298;BME280;18782;48.984;8.548;2023-04-08T04:40:38;100327.69;;;9.04;90.19
32298;BME280;18782;48.984;8.548;2023-04-08T04:43:06;100328.50;;;9.03;90.04
32298;BME280;18782;48.984;8.548;2023-04-08T04:45:33;100331.13;;;9.05;90.25
32298;BME280;18782;48.984;8.548;2023-04-08T04:48:02;100332.00;;;9.05;90.19
32298;BME280;18782;48.984;8.548;2023-04-08T04:50:30;100334.69;;;9.08;90.16
32298;BME280;18782;48.984;8.548;2023-04-08T04:52:58;100341.63;;;9.11;89.96
32298;BME280;18782;48.984;8.548;2023-04-08T04:55:25;100339.00;;;9.09;89.71
32298;BME280;18782;48.984;8.548;2023-04-08T04:57:53;100340.75;;;9.10;89.94
32298;BME280;18782;48.984;8.548;2023-04-08T05:00:20;100342.38;;;9.08;89.55
32298;BME280;18782;48.984;8.548;2023-04-08T05:02:48;100345.75;;;9.07;89.40
32298;BME280;18782;48.984;8.548;2023-04-08T05:05:17;100345.75;;;9.07;89.94
32298;BME280;18782;48.984;8.548;2023-04-08T05:07:45;100347.63;;;9.11;89.99
32298;BME280;18782;48.984;8.548;2023-04-08T05:10:13;100344.22;;;9.12;90.35
32298;BME280;18782;48.984;8.548;2023-04-08T05:12:40;100342.59;;;9.14;90.75
32298;BME280;18782;48.984;8.548;2023-04-08T05:15:09;100356.38;;;9.17;90.97
32298;BME280;18782;48.984;8.548;2023-04-08T05:17:36;100361.63;;;9.20;90.62
32298;BME280;18782;48.984;8.548;2023-04-08T05:20:05;100361.63;;;9.20;90.65
32298;BME280;18782;48.984;8.548;2023-04-08T05:22:34;100362.38;;;9.17;90.56
32298;BME280;18782;48.984;8.548;2023-04-08T05:25:02;100369.25;;;9.18;90.37
32298;BME280;18782;48.984;8.548;2023-04-08T05:27:30;100363.41;;;9.22;90.42
32298;BME280;18782;48.984;8.548;2023-04-08T05:29:57;100366.03;;;9.24;90.05
32298;BME280;18782;48.984;8.548;2023-04-08T05:32:25;100372.94;;;9.25;90.47
32298;BME280;18782;48.984;8.548;2023-04-08T05:34:53;100370.38;;;9.25;89.95
32298;BME280;18782;48.984;8.548;2023-04-08T05:37:20;100372.13;;;9.26;89.80
32298;BME280;18782;48.984;8.548;2023-04-08T05:39:49;100373.88;;;9.27;89.77
32298;BME280;18782;48.984;8.548;2023-04-08T05:42:17;100371.34;;;9.28;89.32
32298;BME280;18782;48.984;8.548;2023-04-08T05:44:44;100373.03;;;9.28;89.38
32298;BME280;18782;48.984;8.548;2023-04-08T05:47:12;100380.00;;;9.30;88.96
32298;BME280;18782;48.984;8.548;2023-04-08T05:49:40;100384.47;;;9.36;88.05
32298;BME280;18782;48.984;8.548;2023-04-08T05:52:07;100382.75;;;9.35;88.02
32298;BME280;18782;48.984;8.548;2023-04-08T05:54:35;100375.06;;;9.36;88.02
32298;BME280;18782;48.984;8.548;2023-04-08T05:57:04;100380.16;;;9.35;87.98
32298;BME280;18782;48.984;8.548;2023-04-08T05:59:34;100385.13;;;9.30;88.36
32298;BME280;18782;48.984;8.548;2023-04-08T06:02:02;100384.13;;;9.27;88.64
32298;BME280;18782;48.984;8.548;2023-04-08T06:04:30;100387.81;;;9.57;95.52
32298;BME280;18782;48.984;8.548;2023-04-08T06:06:57;100388.94;;;9.89;96.23
32298;BME280;18782;48.984;8.548;2023-04-08T06:09:28;100384.97;;;10.50;93.27
32298;BME280;18782;48.984;8.548;2023-04-08T06:11:55;100392.03;;;10.84;90.53
32298;BME280;18782;48.984;8.548;2023-04-08T06:14:24;100391.78;;;11.05;88.79
32298;BME280;18782;48.984;8.548;2023-04-08T06:16:52;100400.53;;;11.10;82.83
32298;BME280;18782;48.984;8.548;2023-04-08T06:19:23;100395.19;;;11.04;81.38
32298;BME280;18782;48.984;8.548;2023-04-08T06:21:50;100398.50;;;11.00;81.07
32298;BME280;18782;48.984;8.548;2023-04-08T06:24:18;100410.38;;;10.95;81.42
32298;BME280;18782;48.984;8.548;2023-04-08T06:26:45;100411.28;;;11.26;85.40
32298;BME280;18782;48.984;8.548;2023-04-08T06:29:13;100411.09;;;11.19;80.84
32298;BME280;18782;48.984;8.548;2023-04-08T06:31:42;100407.53;;;11.14;80.40
32298;BME280;18782;48.984;8.548;2023-04-08T06:34:09;100413.19;;;11.03;79.87
32298;BME280;18782;48.984;8.548;2023-04-08T06:36:37;100413.75;;;10.92;79.97
32298;BME280;18782;48.984;8.548;2023-04-08T06:39:04;100413.31;;;10.79;81.04
32298;BME280;18782;48.984;8.548;2023-04-08T06:41:32;100414.97;;;10.77;81.42
32298;BME280;18782;48.984;8.548;2023-04-08T06:44:14;100417.41;;;10.72;80.86
32298;BME280;18782;48.984;8.548;2023-04-08T06:46:43;100420.50;;;10.62;81.76
32298;BME280;18782;48.984;8.548;2023-04-08T06:49:11;100421.41;;;10.64;82.31
32298;BME280;18782;48.984;8.548;2023-04-08T06:51:39;100415.81;;;10.76;82.77
32298;BME280;18782;48.984;8.548;2023-04-08T06:54:07;100418.28;;;10.73;80.58
32298;BME280;18782;48.984;8.548;2023-04-08T06:56:35;100420.19;;;10.80;83.20
32298;BME280;18782;48.984;8.548;2023-04-08T06:59:03;100425.13;;;11.01;84.79
32298;BME280;18782;48.984;8.548;2023-04-08T07:01:31;100423.63;;;11.07;81.71
32298;BME280;18782;48.984;8.548;2023-04-08T07:04:00;100424.66;;;11.12;80.30
32298;BME280;18782;48.984;8.548;2023-04-08T07:06:28;100426.38;;;11.13;80.32
32298;BME280;18782;48.984;8.548;2023-04-08T07:08:56;100425.19;;;11.02;79.45
32298;BME280;18782;48.984;8.548;2023-04-08T07:11:23;100425.97;;;11.00;80.66
32298;BME280;18782;48.984;8.548;2023-04-08T07:13:51;100434.84;;;11.09;80.85
32298;BME280;18782;48.984;8.548;2023-04-08T07:16:19;100436.53;;;11.07;79.42
32298;BME280;18782;48.984;8.548;2023-04-08T07:18:47;100431.44;;;11.10;79.58
32298;BME280;18782;48.984;8.548;2023-04-08T07:21:16;100436.59;;;11.10;79.63
32298;BME280;18782;48.984;8.548;2023-04-08T07:23:43;100446.38;;;11.22;79.08
32298;BME280;18782;48.984;8.548;2023-04-08T07:26:11;100440.56;;;11.28;79.23
32298;BME280;18782;48.984;8.548;2023-04-08T07:28:39;100445.47;;;11.20;78.39
32298;BME280;18782;48.984;8.548;2023-04-08T07:31:08;100446.34;;;11.20;77.62
32298;BME280;18782;48.984;8.548;2023-04-08T07:33:36;100447.47;;;11.29;78.97
32298;BME280;18782;48.984;8.548;2023-04-08T07:36:04;100450.88;;;11.28;77.54
32298;BME280;18782;48.984;8.548;2023-04-08T07:38:33;100440.91;;;11.40;78.51
32298;BME280;18782;48.984;8.548;2023-04-08T07:41:01;100440.38;;;11.52;77.02
32298;BME280;18782;48.984;8.548;2023-04-08T07:43:29;100436.84;;;11.48;75.54
32298;BME280;18782;48.984;8.548;2023-04-08T07:45:59;100433.44;;;11.49;75.89
32298;BME280;18782;48.984;8.548;2023-04-08T07:48:29;100439.63;;;11.54;75.94
32298;BME280;18782;48.984;8.548;2023-04-08T07:50:57;100444.09;;;11.61;75.05
32298;BME280;18782;48.984;8.548;2023-04-08T07:53:38;100444.00;;;11.58;75.43
32298;BME280;18782;48.984;8.548;2023-04-08T07:56:10;100449.34;;;11.64;73.75
32298;BME280;18782;48.984;8.548;2023-04-08T07:58:39;100449.94;;;11.54;74.57
32298;BME280;18782;48.984;8.548;2023-04-08T08:01:16;100451.56;;;11.52;74.73
32298;BME280;18782;48.984;8.548;2023-04-08T08:03:45;100457.66;;;11.54;75.89
32298;BME280;18782;48.984;8.548;2023-04-08T08:06:13;100457.91;;;11.63;75.96
32298;BME280;18782;48.984;8.548;2023-04-08T08:08:42;100464.16;;;11.71;74.83
32298;BME280;18782;48.984;8.548;2023-04-08T08:11:11;100462.16;;;11.61;73.39
32298;BME280;18782;48.984;8.548;2023-04-08T08:13:38;100466.47;;;11.62;73.57
32298;BME280;18782;48.984;8.548;2023-04-08T08:16:06;100475.59;;;11.51;73.81
32298;BME280;18782;48.984;8.548;2023-04-08T08:18:36;100463.66;;;11.83;82.05
32298;BME280;18782;48.984;8.548;2023-04-08T08:21:06;100471.00;;;12.33;81.92
32298;BME280;18782;48.984;8.548;2023-04-08T08:23:34;100477.84;;;12.65;80.74
32298;BME280;18782;48.984;8.548;2023-04-08T08:26:05;100480.84;;;12.84;76.30
32298;BME280;18782;48.984;8.548;2023-04-08T08:28:35;100477.88;;;13.03;78.01
32298;BME280;18782;48.984;8.548;2023-04-08T08:31:03;100474.06;;;13.25;74.95
32298;BME280;18782;48.984;8.548;2023-04-08T08:33:31;100489.06;;;13.40;74.07
32298;BME280;18782;48.984;8.548;2023-04-08T08:36:00;100478.50;;;13.30;71.18
32298;BME280;18782;48.984;8.548;2023-04-08T08:38:30;100479.59;;;13.04;71.75
32298;BME280;18782;48.984;8.548;2023-04-08T08:40:58;100486.22;;;13.27;73.32
32298;BME280;18782;48.984;8.548;2023-04-08T08:43:28;100485.50;;;13.35;72.95
32298;BME280;18782;48.984;8.548;2023-04-08T08:45:58;100496.16;;;13.50;68.87
32298;BME280;18782;48.984;8.548;2023-04-08T08:48:26;100487.53;;;13.48;71.05
32298;BME280;18782;48.984;8.548;2023-04-08T08:50:54;100493.38;;;13.41;69.32
32298;BME280;18782;48.984;8.548;2023-04-08T08:53:28;100490.47;;;13.25;66.79
32298;BME280;18782;48.984;8.548;2023-04-08T08:55:58;100492.28;;;13.29;66.29
32298;BME280;18782;48.984;8.548;2023-04-08T08:58:45;100487.94;;;12.91;67.21
32298;BME280;18782;48.984;8.548;2023-04-08T09:01:29;100491.44;;;12.94;69.45
32298;BME280;18782;48.984;8.548;2023-04-08T09:04:09;100484.84;;;13.07;68.56
32298;BME280;18782;48.984;8.548;2023-04-08T09:06:37;100487.56;;;13.13;64.65
32298;BME280;18782;48.984;8.548;2023-04-08T09:09:05;100494.47;;;13.14;69.82
32298;BME280;18782;48.984;8.548;2023-04-08T09:11:36;100493.00;;;13.22;65.42
32298;BME280;18782;48.984;8.548;2023-04-08T09:14:16;100487.94;;;13.28;65.79
32298;BME280;18782;48.984;8.548;2023-04-08T09:16:44;100485.50;;;13.35;64.61
32298;BME280;18782;48.984;8.548;2023-04-08T09:19:12;100495.72;;;13.28;63.59
32298;BME280;18782;48.984;8.548;2023-04-08T09:21:40;100490.25;;;13.16;62.70
32298;BME280;18782;48.984;8.548;2023-04-08T09:24:25;100482.75;;;12.91;63.75
32298;BME280;18782;48.984;8.548;2023-04-08T09:26:54;100494.19;;;13.00;63.34
32298;BME280;18782;48.984;8.548;2023-04-08T09:29:24;100486.53;;;13.05;62.74
32298;BME280;18782;48.984;8.548;2023-04-08T09:31:58;100490.41;;;13.22;63.52
32298;BME280;18782;48.984;8.548;2023-04-08T09:34:27;100487.41;;;13.42;62.68
32298;BME280;18782;48.984;8.548;2023-04-08T09:36:57;100488.53;;;13.56;63.34
32298;BME280;18782;48.984;8.548;2023-04-08T09:39:25;100492.16;;;13.64;61.00
32298;BME280;18782;48.984;8.548;2023-04-08T09:41:53;100487.69;;;13.57;61.87
32298;BME280;18782;48.984;8.548;2023-04-08T09:44:28;100486.03;;;13.59;60.42
32298;BME280;18782;48.984;8.548;2023-04-08T09:47:01;100485.91;;;13.95;62.01
32298;BME280;18782;48.984;8.548;2023-04-08T09:49:37;100490.53;;;14.13;59.77
32298;BME280;18782;48.984;8.548;2023-04-08T09:52:06;100489.19;;;14.33;57.22
32298;BME280;18782;48.984;8.548;2023-04-08T09:54:41;100488.38;;;14.36;55.72
32298;BME280;18782;48.984;8.548;2023-04-08T09:57:13;100492.34;;;14.19;59.13
32298;BME280;18782;48.984;8.548;2023-04-08T09:59:47;100485.59;;;14.25;57.01
32298;BME280;18782;48.984;8.548;2023-04-08T10:02:20;100484.16;;;14.43;57.40
32298;BME280;18782;48.984;8.548;2023-04-08T10:04:52;100489.13;;;14.77;57.94
32298;BME280;18782;48.984;8.548;2023-04-08T10:07:21;100485.31;;;15.13;56.65
32298;BME280;18782;48.984;8.548;2023-04-08T10:09:49;100492.50;;;15.32;54.53
32298;BME280;18782;48.984;8.548;2023-04-08T10:12:18;100495.16;;;15.37;54.27
32298;BME280;18782;48.984;8.548;2023-04-08T10:17:48;100506.81;;;15.65;52.47
32298;BME280;18782;48.984;8.548;2023-04-08T10:20:40;100495.81;;;15.22;50.29
32298;BME280;18782;48.984;8.548;2023-04-08T10:23:10;100487.66;;;14.96;53.80
32298;BME280;18782;48.984;8.548;2023-04-08T10:25:39;100493.78;;;15.00;52.53
32298;BME280;18782;48.984;8.548;2023-04-08T10:28:23;100491.72;;;15.36;52.99
32298;BME280;18782;48.984;8.548;2023-04-08T10:30:51;100496.38;;;15.62;50.44
32298;BME280;18782;48.984;8.548;2023-04-08T10:33:23;100489.94;;;15.34;49.32
32298;BME280;18782;48.984;8.548;2023-04-08T10:35:53;100492.06;;;15.02;50.50
32298;BME280;18782;48.984;8.548;2023-04-08T10:38:20;100488.72;;;15.09;52.17
32298;BME280;18782;48.984;8.548;2023-04-08T10:40:48;100484.66;;;15.29;51.39
32298;BME280;18782;48.984;8.548;2023-04-08T10:43:16;100482.22;;;15.38;48.77
32298;BME280;18782;48.984;8.548;2023-04-08T10:45:44;100490.97;;;15.47;47.98
32298;BME280;18782;48.984;8.548;2023-04-08T10:48:17;100492.88;;;15.60;47.53
32298;BME280;18782;48.984;8.548;2023-04-08T10:50:52;100488.38;;;15.47;46.44
32298;BME280;18782;48.984;8.548;2023-04-08T10:53:28;100485.00;;;15.51;54.68
32298;BME280;18782;48.984;8.548;2023-04-08T10:56:02;100485.28;;;15.72;53.98
32298;BME280;18782;48.984;8.548;2023-04-08T10:58:30;100489.75;;;15.85;47.88
32298;BME280;18782;48.984;8.548;2023-04-08T11:01:02;100479.53;;;15.98;43.83
32298;BME280;18782;48.984;8.548;2023-04-08T11:03:31;100479.41;;;15.88;44.63
32298;BME280;18782;48.984;8.548;2023-04-08T11:06:01;100476.81;;;15.88;45.02
32298;BME280;18782;48.984;8.548;2023-04-08T11:08:29;100474.91;;;15.75;43.54
32298;BME280;18782;48.984;8.548;2023-04-08T11:10:57;100481.59;;;15.58;44.75
32298;BME280;18782;48.984;8.548;2023-04-08T11:13:26;100473.63;;;15.43;44.54
32298;BME280;18782;48.984;8.548;2023-04-08T11:15:54;100469.94;;;15.25;44.97
32298;BME280;18782;48.984;8.548;2023-04-08T11:18:22;100475.94;;;15.23;46.34
32298;BME280;18782;48.984;8.548;2023-04-08T11:20:50;100468.53;;;14.88;44.76
32298;BME280;18782;48.984;8.548;2023-04-08T11:23:20;100477.75;;;14.71;45.38
32298;BME280;18782;48.984;8.548;2023-04-08T11:25:48;100482.09;;;14.23;46.66
32298;BME280;18782;48.984;8.548;2023-04-08T11:28:17;100482.78;;;14.15;47.16
32298;BME280;18782;48.984;8.548;2023-04-08T11:30:45;100475.50;;;13.94;48.07
32298;BME280;18782;48.984;8.548;2023-04-08T11:33:13;100479.59;;;13.82;49.07
32298;BME280;18782;48.984;8.548;2023-04-08T11:35:42;100481.66;;;13.56;49.05
32298;BME280;18782;48.984;8.548;2023-04-08T11:38:10;100480.22;;;13.71;50.56
32298;BME280;18782;48.984;8.548;2023-04-08T11:40:39;100483.03;;;13.81;50.81
32298;BME280;18782;48.984;8.548;2023-04-08T11:43:11;100484.59;;;13.73;49.71
32298;BME280;18782;48.984;8.548;2023-04-08T11:45:41;100475.91;;;13.71;48.67
32298;BME280;18782;48.984;8.548;2023-04-08T11:48:09;100480.78;;;13.56;47.18
32298;BME280;18782;48.984;8.548;2023-04-08T11:50:37;100486.00;;;13.57;48.42
32298;BME280;18782;48.984;8.548;2023-04-08T11:53:15;100475.00;;;13.68;49.17
32298;BME280;18782;48.984;8.548;2023-04-08T11:55:44;100474.38;;;13.79;46.90
32298;BME280;18782;48.984;8.548;2023-04-08T11:58:12;100481.41;;;13.87;45.58
32298;BME280;18782;48.984;8.548;2023-04-08T12:00:40;100486.88;;;14.02;46.87
32298;BME280;18782;48.984;8.548;2023-04-08T12:03:08;100487.59;;;14.42;45.47
32298;BME280;18782;48.984;8.548;2023-04-08T12:05:36;100488.34;;;14.84;44.33
32298;BME280;18782;48.984;8.548;2023-04-08T12:08:04;100477.66;;;15.21;48.62
32298;BME280;18782;48.984;8.548;2023-04-08T12:10:31;100482.25;;;15.42;45.99
32298;BME280;18782;48.984;8.548;2023-04-08T12:13:00;100474.69;;;15.57;41.49
32298;BME280;18782;48.984;8.548;2023-04-08T12:15:28;100474.38;;;15.34;40.42
32298;BME280;18782;48.984;8.548;2023-04-08T12:17:56;100473.28;;;15.18;41.63
32298;BME280;18782;48.984;8.548;2023-04-08T12:20:23;100480.41;;;15.31;42.05
32298;BME280;18782;48.984;8.548;2023-04-08T12:22:51;100470.22;;;15.47;43.32
32298;BME280;18782;48.984;8.548;2023-04-08T12:25:19;100484.06;;;15.49;40.96
32298;BME280;18782;48.984;8.548;2023-04-08T12:27:46;100485.44;;;15.22;41.43
32298;BME280;18782;48.984;8.548;2023-04-08T12:30:15;100486.72;;;14.91;42.19
32298;BME280;18782;48.984;8.548;2023-04-08T12:32:43;100497.91;;;14.88;43.15
32298;BME280;18782;48.984;8.548;2023-04-08T12:35:12;100484.38;;;15.08;43.29
32298;BME280;18782;48.984;8.548;2023-04-08T12:37:40;100489.13;;;15.39;43.54
32298;BME280;18782;48.984;8.548;2023-04-08T12:40:08;100487.63;;;15.55;42.79
32298;BME280;18782;48.984;8.548;2023-04-08T12:42:36;100485.94;;;15.59;42.49
32298;BME280;18782;48.984;8.548;2023-04-08T12:45:04;100484.00;;;15.43;42.63
32298;BME280;18782;48.984;8.548;2023-04-08T12:47:33;100489.25;;;15.49;44.58
32298;BME280;18782;48.984;8.548;2023-04-08T12:50:01;100480.75;;;15.59;43.21
32298;BME280;18782;48.984;8.548;2023-04-08T12:52:28;100471.78;;;15.34;44.45
32298;BME280;18782;48.984;8.548;2023-04-08T12:54:56;100490.13;;;15.48;44.65
32298;BME280;18782;48.984;8.548;2023-04-08T12:57:23;100478.66;;;15.30;44.96
32298;BME280;18782;48.984;8.548;2023-04-08T12:59:52;100478.69;;;15.33;45.23
32298;BME280;18782;48.984;8.548;2023-04-08T13:02:20;100485.75;;;15.45;44.60
32298;BME280;18782;48.984;8.548;2023-04-08T13:04:49;100486.09;;;15.68;45.12
32298;BME280;18782;48.984;8.548;2023-04-08T13:07:17;100471.69;;;15.93;45.57
32298;BME280;18782;48.984;8.548;2023-04-08T13:09:45;100481.16;;;16.79;41.19
32298;BME280;18782;48.984;8.548;2023-04-08T13:12:12;100480.72;;;17.44;40.70
32298;BME280;18782;48.984;8.548;2023-04-08T13:14:41;100478.34;;;17.95;38.64
32298;BME280;18782;48.984;8.548;2023-04-08T13:17:09;100480.91;;;17.81;37.85
32298;BME280;18782;48.984;8.548;2023-04-08T13:19:36;100480.91;;;17.75;38.16
32298;BME280;18782;48.984;8.548;2023-04-08T13:22:05;100468.56;;;17.40;39.84
32298;BME280;18782;48.984;8.548;2023-04-08T13:24:33;100480.53;;;17.08;39.18
32298;BME280;18782;48.984;8.548;2023-04-08T13:27:00;100480.63;;;17.26;38.34